Terminal Aerodrome Forecast
Issued by NWS

Home | Current Version | Previous Version | Text Only | Print | Product List | Glossary On
Versions: 1 2 3 4 5 6 7 8 9 10 11 12 13 14 15 16 17 18
000
FTUS44 KLZK 301739
TAFLLQ
TAF
KLLQ 301739Z 3018/3118 12006KT P6SM VCTS SCT050CB BKN120
     FM302300 11006KT 5SM -TSRA BR BKN025CB
     FM310400 09004KT P6SM VCTS SCT040CB SCT250
     FM311000 12003KT P6SM BKN040=

USA.gov is the U.S. government's official web portal to all federal, state and local government web resources and services.